Time;durP1;ratioP1;P1;durP2;ratioP2;P2;SDS_P1;SDS_P2;PMS_P1;PMS_P2;Temp;Humidity;BMP_temperature;BMP_pressure;BME280_temperature;BME280_humidity;BME280_pressure;Samples;Min_cycle;Max_cycle;Signal;HPM_P1;HPM_P2
2022/01/25 00:28:25;;;;;;;55.50;26.83;;;;;;;4.19;72.18;103429.84;10510407;28;19963;-84
2022/01/25 00:33:28;;;;;;;53.58;27.65;;;;;;;3.94;72.97;103435.22;10486077;28;20423;-85
2022/01/25 00:38:29;;;;;;;59.03;28.95;;;;;;;4.33;72.36;103421.81;10507127;28;20082;-85
2022/01/25 00:43:31;;;;;;;53.83;26.88;;;;;;;4.19;72.67;103425.63;10482186;28;20045;-84
2022/01/25 00:58:55;;;;;;;65.00;28.73;;;;;;;4.72;71.33;103405.78;10503197;28;20087;-85
2022/01/25 01:03:58;;;;;;;62.30;29.05;;;;;;;4.37;70.91;103412.78;10488144;28;20476;-85
2022/01/25 01:09:00;;;;;;;57.50;27.85;;;;;;;4.05;72.15;103414.16;10497980;28;20052;-84
2022/01/25 01:45:32;;;;;;;66.30;29.75;;;;;;;4.52;69.47;103392.84;10504706;28;20135;-84
2022/01/25 01:50:36;;;;;;;59.40;28.73;;;;;;;4.48;69.23;103391.66;10520279;28;20048;-85
2022/01/25 01:55:38;;;;;;;59.13;28.33;;;;;;;4.30;74.13;103393.44;10491134;28;20060;-84
2022/01/25 02:00:45;;;;;;;58.28;28.08;;;;;;;4.52;71.37;103382.63;10494755;28;20046;-85
2022/01/25 02:05:47;;;;;;;67.22;29.05;;;;;;;4.27;71.91;103390.63;10487833;28;20551;-84
2022/01/25 02:10:49;;;;;;;66.68;30.00;;;;;;;4.49;71.09;103395.13;10497049;28;20090;-85
2022/01/25 02:15:55;;;;;;;58.72;28.23;;;;;;;4.58;72.23;103403.59;10505585;28;20035;-84
2022/01/25 02:26:17;;;;;;;;;;;;;;;4.18;71.78;103397.44;10497938;28;20583;-83
2022/01/25 02:31:19;;;;;;;64.80;25.67;;;;;;;4.45;73.63;103386.31;10480708;28;19924;-85
2022/01/25 02:36:27;;;;;;;58.90;26.98;;;;;;;4.43;72.30;103386.16;10492753;28;20098;-84
2022/01/25 02:41:29;;;;;;;60.85;27.17;;;;;;;4.41;72.62;103380.03;10491944;28;20127;-84
2022/01/25 02:51:37;;;;;;;68.18;28.88;;;;;;;4.19;71.20;103372.06;10454999;28;20488;-80
2022/01/25 02:56:40;;;;;;;62.83;29.30;;;;;;;4.45;71.46;103382.09;10455053;28;20139;-81
2022/01/25 03:01:43;;;;;;;63.83;28.42;;;;;;;4.08;73.09;103386.38;10471702;28;20041;-81
2022/01/25 03:06:45;;;;;;;70.93;30.08;;;;;;;3.98;71.28;103381.19;10471616;28;20076;-80
2022/01/25 03:11:50;;;;;;;68.40;29.70;;;;;;;4.03;72.58;103377.41;10471985;28;20148;-80
2022/01/25 03:21:56;;;;;;;66.95;28.65;;;;;;;4.10;72.21;103367.00;10457192;28;20064;-81
2022/01/25 03:26:58;;;;;;;62.13;29.00;;;;;;;3.98;71.30;103363.34;10474073;28;20052;-81
2022/01/25 03:31:59;;;;;;;67.60;30.63;;;;;;;4.08;69.92;103359.97;10478661;28;20102;-81
2022/01/25 03:37:01;;;;;;;66.28;30.83;;;;;;;4.19;69.49;103356.75;10511806;28;20037;-81
2022/01/25 03:42:07;;;;;;;66.57;29.95;;;;;;;4.38;69.74;103354.22;10533895;28;20177;-84
2022/01/25 03:47:13;;;;;;;62.88;29.90;;;;;;;4.25;70.32;103351.31;10503730;28;20067;-85
2022/01/25 03:52:16;;;;;;;66.13;29.63;;;;;;;4.60;70.08;103343.38;10508540;28;20071;-81
2022/01/25 03:57:18;;;;;;;62.60;28.60;;;;;;;4.60;71.33;103340.81;10545966;28;20093;-81
2022/01/25 04:02:19;;;;;;;65.78;28.98;;;;;;;4.49;71.09;103344.97;10527671;28;20083;-81
2022/01/25 04:07:31;;;;;;;60.55;27.25;;;;;;;4.38;71.65;103338.91;10527554;28;20062;-80
2022/01/25 04:12:32;;;;;;;66.50;29.40;;;;;;;4.09;72.05;103338.81;10528251;28;20047;-80
2022/01/25 04:17:35;;;;;;;66.43;29.98;;;;;;;4.33;71.27;103347.81;10527098;28;20474;-80
2022/01/25 04:27:57;;;;;;;64.97;30.17;;;;;;;4.00;72.33;103346.50;10501639;28;20044;-81
2022/01/25 04:33:17;;;;;;;74.38;32.97;;;;;;;3.93;72.72;103334.84;10460100;28;20041;-81
2022/01/25 04:49:06;;;;;;;59.90;27.92;;;;;;;4.37;72.53;103334.53;10461219;28;20102;-80
2022/01/25 05:04:29;;;;;;;76.55;31.95;;;;;;;3.85;69.70;103338.34;10458600;28;20053;-80
2022/01/25 05:09:33;;;;;;;68.57;30.27;;;;;;;4.16;70.17;103345.34;10475252;28;20091;-80
2022/01/25 05:14:46;;;;;;;71.75;29.98;;;;;;;4.13;69.96;103336.66;10475451;28;20064;-80
2022/01/25 05:24:52;;;;;;;63.78;29.05;;;;;;;4.54;71.20;103353.03;10483737;28;20392;-81
2022/01/25 05:29:53;;;;;;;70.32;29.52;;;;;;;4.50;69.47;103349.31;10491864;28;20115;-81
2022/01/25 05:34:55;;;;;;;67.57;30.65;;;;;;;4.54;70.47;103355.59;10508812;28;20056;-84
2022/01/25 05:39:58;;;;;;;69.53;29.85;;;;;;;4.49;69.86;103354.28;10500847;28;20072;-84
2022/01/25 05:45:25;;;;;;;65.05;29.00;;;;;;;4.55;70.27;103342.06;10511239;28;20431;-85
2022/01/25 05:50:24;;;;;;;68.03;29.60;;;;;;;4.25;71.11;103346.19;10527957;28;20108;-84
2022/01/25 05:55:26;;;;;;;65.50;27.95;;;;;;;4.12;70.90;103345.09;10534724;28;20048;-84
2022/01/25 06:00:28;;;;;;;63.35;28.05;;;;;;;4.43;71.90;103329.09;10519573;28;20044;-84
2022/01/25 06:05:29;;;;;;;63.95;29.25;;;;;;;4.20;71.96;103334.69;10488311;28;20098;-85
2022/01/25 06:10:32;;;;;;;67.65;28.15;;;;;;;4.10;72.46;103341.50;10511131;28;20120;-84
2022/01/25 06:15:34;;;;;;;65.47;27.60;;;;;;;3.97;71.18;103330.94;10519157;28;20044;-84
2022/01/25 06:20:35;;;;;;;61.85;27.08;;;;;;;4.20;69.89;103342.34;10517198;28;20075;-84
2022/01/25 06:25:38;;;;;;;62.58;26.77;;;;;;;4.44;71.12;103342.00;10476231;28;20478;-84
2022/01/25 06:30:40;;;;;;;58.17;26.80;;;;;;;4.12;72.09;103347.66;10496424;28;20086;-85
2022/01/25 06:35:45;;;;;;;61.75;26.75;;;;;;;3.83;73.13;103344.06;10484092;28;20215;-84
2022/01/25 06:40:46;;;;;;;62.72;28.48;;;;;;;3.76;73.15;103343.47;10485951;28;20048;-80
2022/01/25 06:45:55;;;;;;;69.88;27.23;;;;;;;3.83;72.91;103346.63;10479963;28;20052;-81
2022/01/25 06:50:58;;;;;;;58.00;26.10;;;;;;;3.72;73.06;103343.06;10479682;28;20041;-80
2022/01/25 06:56:00;;;;;;;59.30;25.60;;;;;;;4.08;70.44;103331.91;10496274;28;20067;-80
2022/01/25 07:01:02;;;;;;;60.25;27.13;;;;;;;4.00;70.14;103338.84;10513029;28;20072;-80
2022/01/25 07:06:04;;;;;;;58.78;27.05;;;;;;;4.12;71.05;103340.00;10496610;28;20121;-80
2022/01/25 07:11:06;;;;;;;62.13;27.88;;;;;;;4.01;71.32;103340.66;10504387;28;20075;-80
2022/01/25 07:16:07;;;;;;;62.95;27.42;;;;;;;4.08;71.35;103343.00;10521842;28;20387;-80
2022/01/25 07:21:09;;;;;;;58.28;25.55;;;;;;;3.78;72.79;103349.63;10504209;28;20049;-80
2022/01/25 07:26:11;;;;;;;65.32;27.83;;;;;;;4.17;71.00;103347.16;10487141;28;20495;-80
2022/01/25 07:31:12;;;;;;;59.75;25.73;;;;;;;3.79;72.61;103343.75;10487158;28;20052;-80
2022/01/25 07:36:20;;;;;;;55.55;25.60;;;;;;;3.77;73.98;103347.81;10502046;28;20082;-83
2022/01/25 07:41:23;;;;;;;61.53;27.10;;;;;;;3.63;73.18;103355.84;10540999;28;20105;-83
2022/01/25 07:46:30;;;;;;;60.13;26.33;;;;;;;4.11;70.51;103348.41;10515132;28;20036;-84
2022/01/25 07:51:32;;;;;;;59.65;26.42;;;;;;;3.97;71.89;103353.88;10498718;28;20102;-83
2022/01/25 07:56:34;;;;;;;57.78;25.50;;;;;;;3.84;73.33;103363.69;10482788;28;20139;-84
2022/01/25 08:01:35;;;;;;;64.40;26.23;;;;;;;3.61;73.28;103372.66;10520904;28;20040;-84
2022/01/25 08:06:38;;;;;;;57.17;25.92;;;;;;;3.71;73.16;103374.41;10484035;28;20045;-84
2022/01/25 08:11:43;;;;;;;55.45;24.75;;;;;;;3.64;74.56;103378.03;10515063;28;20048;-84
2022/01/25 08:17:17;;;;;;;62.30;25.10;;;;;;;3.52;74.55;103376.88;10372804;28;20045;-84
2022/01/25 08:22:33;;;;;;;63.97;27.08;;;;;;;3.49;73.96;103378.38;10405181;28;20467;-84
2022/01/25 08:27:57;;;;;;;65.63;25.80;;;;;;;3.83;73.11;103369.56;10178516;29;20055;-83
2022/01/25 08:33:00;;;;;;;59.60;25.60;;;;;;;3.81;72.47;103362.66;10174359;29;20415;-83
2022/01/25 08:38:18;;;;;;;57.05;24.73;;;;;;;3.62;72.04;103362.59;10190643;29;20213;-83
2022/01/25 08:43:20;;;;;;;58.72;25.20;;;;;;;4.00;72.26;103374.56;10168660;29;20040;-83
2022/01/25 08:48:25;;;;;;;58.83;26.10;;;;;;;3.96;71.50;103362.28;10279259;28;20058;-84
2022/01/25 08:53:37;;;;;;;61.90;26.38;;;;;;;3.96;73.04;103368.28;10281304;28;20045;-83
2022/01/25 08:58:40;;;;;;;56.83;25.33;;;;;;;4.02;72.87;103378.16;10433810;28;20080;-83
2022/01/25 09:03:50;;;;;;;58.35;24.38;;;;;;;4.16;72.46;103376.88;10477981;28;20072;-80
2022/01/25 09:08:51;;;;;;;59.35;24.25;;;;;;;3.95;72.33;103388.53;10482949;28;20519;-79
2022/01/25 09:13:53;;;;;;;55.83;25.05;;;;;;;4.26;72.41;103386.28;10482915;28;20480;-80
2022/01/25 09:18:55;;;;;;;66.13;26.25;;;;;;;4.36;71.98;103376.13;10500611;28;20049;-80
2022/01/25 09:23:57;;;;;;;61.75;25.23;;;;;;;4.31;72.64;103379.94;10505511;28;20097;-80
2022/01/25 09:28:58;;;;;;;65.80;25.75;;;;;;;4.23;71.63;103386.00;10523737;28;20490;-80
2022/01/25 09:34:01;;;;;;;62.03;26.35;;;;;;;3.94;72.41;103400.41;10524039;28;20111;-80
2022/01/25 09:39:03;;;;;;;58.00;24.48;;;;;;;4.36;72.80;103390.56;10508953;28;20498;-80
2022/01/25 09:44:05;;;;;;;64.47;26.30;;;;;;;4.19;72.06;103397.56;10476512;28;20095;-79
2022/01/25 09:49:07;;;;;;;57.72;25.15;;;;;;;4.60;71.15;103399.53;10481494;28;20075;-80
2022/01/25 09:54:09;;;;;;;61.88;26.85;;;;;;;4.15;72.78;103402.25;10497736;28;20127;-79
2022/01/25 10:06:17;;;;;;;55.85;23.17;;;;;;;4.09;71.45;103402.59;10499081;28;20036;-80
2022/01/25 10:11:22;;;;;;;59.50;25.30;;;;;;;4.40;71.26;103408.84;10498965;28;20086;-80
2022/01/25 10:16:32;;;;;;;54.45;24.00;;;;;;;4.48;71.48;103406.09;10480886;28;20049;-80
2022/01/25 10:21:38;;;;;;;54.00;23.00;;;;;;;4.18;70.47;103397.44;10497738;28;20048;-79
2022/01/25 10:26:52;;;;;;;60.70;25.08;;;;;;;4.19;71.08;103406.88;10481493;28;20043;-79
2022/01/25 10:31:58;;;;;;;59.50;23.20;;;;;;;4.48;70.13;103407.00;10498362;28;20136;-80
2022/01/25 10:37:06;;;;;;;60.67;24.13;;;;;;;4.69;69.07;103402.94;10513733;28;20434;-80
2022/01/25 10:42:18;;;;;;;52.70;22.60;;;;;;;4.41;70.13;103399.53;10480256;28;20040;-79
2022/01/25 10:47:42;;;;;;;61.13;25.88;;;;;;;4.53;69.70;103409.97;10515413;28;20040;-79
2022/01/25 10:52:44;;;;;;;65.53;24.33;;;;;;;4.49;69.19;103407.91;10521399;28;20056;-80
2022/01/25 10:57:56;;;;;;;64.07;24.15;;;;;;;3.98;70.37;103422.00;10526207;28;20044;-80
2022/01/25 11:03:02;;;;;;;67.85;25.67;;;;;;;4.43;70.83;103413.34;10527218;28;20070;-80
2022/01/25 11:08:23;;;;;;;64.07;27.23;;;;;;;3.99;71.91;103425.44;10521324;28;20044;-80
2022/01/25 11:18:30;;;;;;;56.97;23.63;;;;;;;4.18;72.39;103430.59;10479405;28;19979;-79
2022/01/25 11:23:34;;;;;;;60.08;24.52;;;;;;;3.97;72.29;103435.50;10488045;28;20475;-79
2022/01/25 11:28:40;;;;;;;60.47;23.67;;;;;;;4.24;70.99;103431.16;10505125;28;20036;-80
2022/01/25 11:33:45;;;;;;;64.45;26.85;;;;;;;4.49;69.16;103420.66;10495352;28;20075;-79
2022/01/25 11:38:51;;;;;;;62.42;24.75;;;;;;;4.33;70.68;103416.72;10483638;28;20048;-80
2022/01/25 11:44:21;;;;;;;56.95;23.58;;;;;;;4.48;69.85;103409.53;10520251;28;20048;-79
2022/01/25 11:49:24;;;;;;;57.95;24.00;;;;;;;3.90;71.23;103412.75;10486452;28;20041;-80
2022/01/25 11:54:25;;;;;;;58.05;23.35;;;;;;;4.11;70.30;103394.31;10482521;28;20102;-80
2022/01/25 11:59:34;;;;;;;56.45;23.00;;;;;;;3.89;71.55;103405.84;10485461;28;20404;-79
2022/01/25 12:04:43;;;;;;;58.72;24.42;;;;;;;3.61;72.77;103403.25;10501046;28;20404;-80
2022/01/25 12:09:49;;;;;;;60.35;24.35;;;;;;;3.72;71.72;103392.41;10485705;28;20091;-80
2022/01/25 12:14:54;;;;;;;58.97;23.77;;;;;;;3.81;73.43;103395.81;10527535;28;20123;-80
2022/01/25 12:20:03;;;;;;;56.90;23.15;;;;;;;3.83;71.34;103385.75;10520562;28;20048;-79
2022/01/25 12:25:37;;;;;;;60.08;23.73;;;;;;;4.01;71.98;103376.34;10469900;28;20036;-79
2022/01/25 12:30:51;;;;;;;58.10;22.35;;;;;;;4.22;70.01;103371.44;10527181;28;20059;-79
2022/01/25 12:35:59;;;;;;;60.53;23.73;;;;;;;4.39;69.45;103370.44;10484818;28;20037;-79
2022/01/25 12:41:18;;;;;;;55.60;22.88;;;;;;;4.11;69.69;103362.78;10517901;28;20044;-79
2022/01/25 12:46:28;;;;;;;54.08;22.70;;;;;;;4.48;70.30;103358.47;10500774;28;20083;-79
2022/01/25 12:51:33;;;;;;;55.28;22.48;;;;;;;4.56;68.85;103348.97;10528892;28;20501;-79
2022/01/25 12:56:46;;;;;;;54.78;22.33;;;;;;;4.43;69.31;103347.84;10526028;28;20056;-79
2022/01/25 13:01:48;;;;;;;58.83;24.73;;;;;;;4.18;69.93;103354.06;10513631;28;20079;-79
2022/01/25 13:06:52;;;;;;;61.15;25.13;;;;;;;4.17;68.71;103350.59;10483387;28;20044;-79
2022/01/25 13:17:12;;;;;;;56.85;22.45;;;;;;;4.42;70.54;103346.09;10483439;28;20123;-79
2022/01/25 13:22:18;;;;;;;64.65;24.55;;;;;;;4.55;69.93;103335.31;10482806;28;20139;-79
2022/01/25 13:27:22;;;;;;;58.88;23.00;;;;;;;4.37;69.62;103337.09;10498893;28;20055;-79
2022/01/25 13:32:32;;;;;;;55.58;22.20;;;;;;;3.97;71.12;103328.38;10515643;28;20068;-80
2022/01/25 13:37:34;;;;;;;;;;;;;;;4.09;70.58;103329.50;10482430;28;20048;-80
2022/01/25 13:43:30;;;;;;;54.53;22.90;;;;;;;4.47;70.49;103317.50;10498250;28;20007;-79
2022/01/25 13:48:04;;;;;;;55.63;23.30;;;;;;;4.10;70.04;103326.19;10491373;28;20088;-79
2022/01/25 13:53:08;;;;;;;58.38;23.27;;;;;;;3.89;72.38;103320.00;10497861;28;20071;-79
2022/01/25 13:58:23;;;;;;;58.30;22.77;;;;;;;3.67;71.55;103322.25;10481021;28;20052;-79
2022/01/25 14:03:35;;;;;;;53.97;22.00;;;;;;;3.95;70.82;103312.91;10497366;28;20048;-79
2022/01/25 14:08:42;;;;;;;62.38;23.55;;;;;;;3.69;72.04;103310.50;10498581;28;20051;-79
2022/01/25 14:24:36;;;;;;;59.42;24.10;;;;;;;3.54;71.72;103307.44;10502791;28;20043;-79
2022/01/25 14:29:40;;;;;;;53.88;21.48;;;;;;;3.63;72.63;103292.09;10484427;28;20056;-79
2022/01/25 14:34:42;;;;;;;63.40;23.92;;;;;;;3.54;72.48;103288.72;10525514;28;20131;-79
2022/01/25 14:39:43;;;;;;;53.80;22.50;;;;;;;4.04;70.58;103292.47;10521695;28;20136;-79
2022/01/25 14:44:47;;;;;;;55.17;22.40;;;;;;;3.72;72.85;103282.75;10538898;28;20062;-79
2022/01/25 14:49:48;;;;;;;59.80;22.55;;;;;;;3.84;70.62;103287.19;10538566;28;20063;-79
2022/01/25 14:55:40;;;;;;;59.92;22.98;;;;;;;3.64;72.44;103289.72;10538285;28;20369;-79
2022/01/25 15:00:47;;;;;;;54.57;22.27;;;;;;;3.75;71.17;103284.69;10453856;28;20075;-79
2022/01/25 15:05:51;;;;;;;59.30;22.08;;;;;;;3.36;73.99;103304.06;10514129;28;20385;-79
2022/01/25 15:10:53;;;;;;;56.22;23.00;;;;;;;3.47;74.89;103292.34;10520818;28;20036;-79
2022/01/25 15:15:57;;;;;;;61.08;23.15;;;;;;;3.42;72.86;103288.47;10526629;28;20037;-80
2022/01/25 15:21:01;;;;;;;56.70;22.95;;;;;;;3.32;73.03;103286.69;10502784;28;20047;-80
2022/01/25 15:26:06;;;;;;;58.78;24.05;;;;;;;3.73;72.59;103289.66;10508336;28;20082;-78
2022/01/25 15:31:11;;;;;;;56.47;22.33;;;;;;;3.63;72.53;103289.56;10500932;28;20517;-78
2022/01/25 15:36:16;;;;;;;62.28;22.98;;;;;;;3.75;71.56;103285.59;10464099;28;20068;-79
2022/01/25 15:41:22;;;;;;;61.10;22.73;;;;;;;3.43;72.75;103306.44;10514265;28;20067;-79
2022/01/25 15:46:30;;;;;;;58.08;22.63;;;;;;;3.75;72.14;103297.44;10468292;28;20124;-79
2022/01/25 15:51:33;;;;;;;60.35;22.70;;;;;;;3.79;72.06;103292.78;10479950;28;20052;-78
2022/01/25 15:56:38;;;;;;;60.33;22.65;;;;;;;3.21;72.16;103298.41;10457347;28;20036;-79
2022/01/25 16:01:41;;;;;;;54.03;21.63;;;;;;;3.40;72.46;103301.03;10474761;28;20072;-78
2022/01/25 16:06:46;;;;;;;64.53;23.95;;;;;;;3.47;73.31;103297.44;10489023;28;20040;-78
2022/01/25 16:11:48;;;;;;;56.22;21.63;;;;;;;3.87;70.72;103295.13;10480443;28;20056;-78
2022/01/25 16:16:54;;;;;;;56.03;21.05;;;;;;;3.99;70.64;103280.94;10495563;28;20105;-79
2022/01/25 16:21:56;;;;;;;57.15;22.52;;;;;;;3.84;70.85;103279.53;10484734;28;20131;-78
2022/01/25 16:26:58;;;;;;;62.88;23.23;;;;;;;3.64;71.78;103296.44;10501515;28;20075;-79
2022/01/25 16:32:00;;;;;;;64.75;23.80;;;;;;;3.18;73.16;103304.13;10487812;28;20045;-79
2022/01/25 16:37:01;;;;;;;56.22;22.13;;;;;;;3.88;71.33;103304.56;10477146;28;20052;-79
2022/01/25 16:42:04;;;;;;;60.75;21.80;;;;;;;3.71;71.65;103303.91;10494886;28;20041;-79
2022/01/25 16:47:31;;;;;;;62.20;22.73;;;;;;;3.56;72.48;103302.47;10461439;28;20056;-78
2022/01/25 16:52:33;;;;;;;58.03;21.20;;;;;;;3.54;71.79;103304.00;10522459;28;20072;-79
2022/01/25 16:58:00;;;;;;;57.10;21.38;;;;;;;3.78;72.08;103293.53;10457227;28;20516;-78
2022/01/25 17:03:08;;;;;;;56.25;21.98;;;;;;;3.55;72.37;103293.03;10485685;28;20044;-78
2022/01/25 17:08:11;;;;;;;53.40;20.85;;;;;;;3.76;71.84;103287.38;10507544;28;20510;-78
2022/01/25 17:13:23;;;;;;;62.75;22.15;;;;;;;3.40;72.73;103285.75;10482151;28;20052;-79
2022/01/25 17:18:28;;;;;;;63.75;23.33;;;;;;;3.45;74.05;103294.75;10482247;28;20565;-79
2022/01/25 17:23:43;;;;;;;62.65;23.10;;;;;;;3.27;73.36;103303.19;10515165;28;20565;-79
2022/01/25 17:28:47;;;;;;;59.92;22.05;;;;;;;2.92;75.70;103300.75;10492051;28;20075;-79
2022/01/25 17:33:51;;;;;;;59.55;21.95;;;;;;;2.82;76.95;103302.41;10497931;28;20045;-79
2022/01/25 17:38:52;;;;;;;59.92;22.92;;;;;;;3.32;75.39;103296.88;10501807;28;20041;-83
2022/01/25 17:43:54;;;;;;;63.38;23.85;;;;;;;3.60;73.72;103285.06;10486013;28;20197;-83
2022/01/25 17:48:57;;;;;;;60.58;22.70;;;;;;;3.54;72.98;103278.53;10516246;28;20041;-82
2022/01/25 17:53:59;;;;;;;57.88;21.75;;;;;;;3.86;72.54;103276.38;10478566;28;20055;-83
2022/01/25 17:59:03;;;;;;;63.83;23.60;;;;;;;3.39;74.00;103278.84;10472153;28;20094;-83
2022/01/25 18:04:07;;;;;;;63.72;24.23;;;;;;;3.45;73.24;103276.00;10501961;28;20120;-82
2022/01/25 18:09:09;;;;;;;56.60;22.75;;;;;;;3.56;73.16;103270.25;10508315;28;20120;-83
2022/01/25 18:14:11;;;;;;;56.00;21.75;;;;;;;3.81;72.47;103270.88;10522276;28;20076;-83
2022/01/25 18:19:13;;;;;;;62.85;23.48;;;;;;;3.89;72.01;103260.47;10525932;28;20052;-83
2022/01/25 18:24:22;;;;;;;59.97;21.80;;;;;;;3.46;74.59;103265.94;10477022;28;20102;-83
2022/01/25 18:29:23;;;;;;;60.58;22.67;;;;;;;3.62;73.55;103272.44;10487848;28;20063;-83
2022/01/25 18:34:25;;;;;;;61.22;22.83;;;;;;;3.31;74.85;103280.72;10486645;28;20086;-83
2022/01/25 18:39:27;;;;;;;62.88;22.73;;;;;;;3.36;73.65;103282.78;10463303;28;20056;-83
2022/01/25 18:44:28;;;;;;;66.47;22.63;;;;;;;3.28;74.80;103290.59;10479691;28;20051;-83
2022/01/25 18:49:30;;;;;;;65.95;23.42;;;;;;;3.06;75.71;103286.78;10496522;28;20068;-83
2022/01/25 18:54:32;;;;;;;66.13;24.00;;;;;;;3.25;76.26;103297.06;10455069;28;20686;-83
2022/01/25 18:59:36;;;;;;;62.90;23.55;;;;;;;3.43;75.07;103291.16;10470756;28;20045;-83
2022/01/25 19:04:42;;;;;;;60.47;23.52;;;;;;;3.29;75.31;103292.41;10495518;28;20040;-83
2022/01/25 19:09:44;;;;;;;62.55;23.27;;;;;;;3.32;73.71;103291.78;10512705;28;20051;-83
2022/01/25 19:14:45;;;;;;;62.88;23.77;;;;;;;3.72;73.35;103294.63;10493164;28;20044;-83
2022/01/25 19:19:47;;;;;;;65.40;23.33;;;;;;;3.83;72.39;103296.50;10505958;28;20109;-83
2022/01/25 19:24:50;;;;;;;63.08;22.90;;;;;;;3.28;73.13;103295.69;10494324;28;20497;-83
2022/01/25 19:29:52;;;;;;;60.72;23.05;;;;;;;3.45;74.57;103291.28;10481341;28;20380;-83
2022/01/25 19:34:53;;;;;;;59.65;22.02;;;;;;;3.49;73.63;103291.72;10489984;28;20067;-83
2022/01/25 19:39:57;;;;;;;64.38;24.05;;;;;;;3.23;74.51;103301.13;10478359;28;20144;-83
2022/01/25 19:45:00;;;;;;;67.75;23.65;;;;;;;3.10;74.44;103299.94;10474147;28;20062;-83
2022/01/25 19:50:04;;;;;;;63.40;22.83;;;;;;;3.45;73.42;103294.75;10475642;28;20131;-83
2022/01/25 19:55:11;;;;;;;60.92;22.25;;;;;;;3.43;74.79;103286.06;10491070;28;20033;-83
2022/01/25 20:00:16;;;;;;;72.93;24.05;;;;;;;3.40;73.49;103290.84;10483571;28;20049;-83
2022/01/25 20:05:18;;;;;;;73.03;24.85;;;;;;;3.07;73.98;103299.69;10497334;28;20084;-85
2022/01/25 20:10:19;;;;;;;73.53;26.63;;;;;;;2.84;74.19;103300.91;10506622;28;20573;-83
2022/01/25 20:15:21;;;;;;;64.65;22.48;;;;;;;3.30;72.84;103295.84;10492721;28;20044;-84
2022/01/25 20:30:38;;;;;;;71.32;24.15;;;;;;;3.35;75.09;103289.53;10463454;28;20076;-83
2022/01/25 20:35:40;;;;;;;;;;;;;;;3.50;72.63;103282.41;10451662;28;20139;-84
2022/01/25 20:40:43;;;;;;;63.72;22.65;;;;;;;3.58;73.07;103283.13;10471976;28;20014;-83
2022/01/25 20:45:46;;;;;;;63.75;22.38;;;;;;;3.46;73.73;103275.25;10475279;28;20466;-83
2022/01/25 20:50:49;;;;;;;72.50;24.15;;;;;;;3.31;73.59;103282.38;10458575;28;20087;-84
2022/01/25 20:55:51;;;;;;;76.30;24.88;;;;;;;3.23;72.79;103280.75;10445615;28;20041;-83
2022/01/25 21:00:54;;;;;;;65.00;22.98;;;;;;;3.49;73.46;103278.09;10465799;28;20567;-83
2022/01/25 21:11:18;;;;;;;74.40;25.02;;;;;;;3.18;74.27;103278.66;10483362;28;20567;-80
2022/01/25 21:16:20;;;;;;;67.38;24.02;;;;;;;3.38;73.31;103278.72;10499609;28;20143;-78
2022/01/25 21:21:23;;;;;;;68.10;24.40;;;;;;;3.16;74.02;103282.69;10542192;28;20140;-80
2022/01/25 21:26:25;;;;;;;79.32;24.92;;;;;;;3.26;73.95;103283.56;10523157;28;20543;-80
2022/01/25 21:31:28;;;;;;;76.70;24.00;;;;;;;3.22;73.98;103289.13;10493953;28;20098;-79
2022/01/25 21:36:30;;;;;;;75.57;25.27;;;;;;;3.08;74.28;103296.38;10475567;28;20036;-80
2022/01/25 21:48:27;;;;;;;83.38;27.23;;;;;;;3.00;74.16;103276.94;10534439;28;20032;-79
2022/01/25 21:53:30;;;;;;;79.70;24.15;;;;;;;2.85;73.87;103272.16;10522961;28;20143;-79
2022/01/25 21:58:34;;;;;;;71.95;23.88;;;;;;;3.22;73.15;103258.56;10522857;28;20468;-79
2022/01/25 22:03:39;;;;;;;72.32;25.73;;;;;;;3.19;72.74;103249.00;10522783;28;20139;-79
2022/01/25 22:08:46;;;;;;;86.00;25.55;;;;;;;3.35;73.20;103250.44;10539688;28;20067;-79
2022/01/25 22:14:04;;;;;;;81.50;25.58;;;;;;;3.05;74.79;103264.63;10507575;28;20106;-79
2022/01/25 22:19:06;;;;;;;85.97;26.08;;;;;;;3.17;74.73;103247.94;10497308;28;20094;-79
2022/01/25 22:24:10;;;;;;;81.65;26.52;;;;;;;3.24;73.39;103250.31;10497454;28;20044;-79
2022/01/25 22:29:11;;;;;;;79.15;25.67;;;;;;;3.05;74.51;103260.41;10480778;28;20045;-80
2022/01/25 22:34:13;;;;;;;80.78;26.30;;;;;;;3.11;73.24;103271.19;10480844;28;20055;-79
2022/01/25 22:39:17;;;;;;;78.93;25.58;;;;;;;3.16;73.07;103274.16;10480716;28;20051;-79
2022/01/25 22:44:19;;;;;;;81.68;25.15;;;;;;;3.37;73.00;103280.38;10521792;28;20478;-80
2022/01/25 22:49:31;;;;;;;70.95;23.90;;;;;;;3.36;73.27;103273.50;10509811;28;20131;-80
2022/01/25 22:54:34;;;;;;;79.90;26.20;;;;;;;3.25;73.84;103284.31;10516556;28;20045;-79
2022/01/25 22:59:36;;;;;;;75.75;25.52;;;;;;;3.14;74.26;103291.88;10513184;28;20091;-80
2022/01/25 23:04:37;;;;;;;86.88;27.75;;;;;;;2.85;74.88;103282.34;10479525;28;20068;-80
2022/01/25 23:09:39;;;;;;;84.50;27.90;;;;;;;2.74;75.50;103282.06;10498699;28;20057;-80
2022/01/25 23:14:47;;;;;;;80.10;26.40;;;;;;;2.96;75.37;103283.38;10512322;28;20048;-79
2022/01/25 23:20:01;;;;;;;87.22;27.60;;;;;;;2.59;76.11;103291.66;10479137;28;20602;-80
2022/01/25 23:25:03;;;;;;;80.50;26.80;;;;;;;2.66;75.51;103294.03;10495373;28;20044;-81
2022/01/25 23:30:16;;;;;;;83.18;26.60;;;;;;;3.21;73.82;103282.25;10479102;28;20483;-80
2022/01/25 23:35:27;;;;;;;78.45;25.27;;;;;;;3.07;74.02;103289.50;10443572;28;20491;-79
2022/01/25 23:40:46;;;;;;;82.10;25.92;;;;;;;2.97;74.75;103297.00;10513689;28;20095;-79
2022/01/25 23:45:52;;;;;;;77.45;25.95;;;;;;;3.07;75.06;103294.59;10453670;28;20080;-80
